sensor_id;sensor_type;location;lat;lon;timestamp;temperature;humidity
28677;DHT22;15858;48.338;11.078;2022-11-15T00:00:47;4.50;99.90
28677;DHT22;15858;48.338;11.078;2022-11-15T00:03:18;4.50;99.90
28677;DHT22;15858;48.338;11.078;2022-11-15T00:05:45;4.50;99.90
28677;DHT22;15858;48.338;11.078;2022-11-15T00:08:11;4.40;99.90
28677;DHT22;15858;48.338;11.078;2022-11-15T00:10:38;4.50;99.90
28677;DHT22;15858;48.338;11.078;2022-11-15T00:13:10;4.50;99.90
28677;DHT22;15858;48.338;11.078;2022-11-15T00:15:39;4.40;99.90
28677;DHT22;15858;48.338;11.078;2022-11-15T00:18:12;4.40;99.90
28677;DHT22;15858;48.338;11.078;2022-11-15T00:20:39;4.40;99.90
28677;DHT22;15858;48.338;11.078;2022-11-15T00:23:06;4.40;99.90
28677;DHT22;15858;48.338;11.078;2022-11-15T00:25:33;4.40;99.90
28677;DHT22;15858;48.338;11.078;2022-11-15T00:28:00;4.40;99.90
28677;DHT22;15858;48.338;11.078;2022-11-15T00:30:27;4.40;99.90
28677;DHT22;15858;48.338;11.078;2022-11-15T00:32:54;4.40;99.90
28677;DHT22;15858;48.338;11.078;2022-11-15T00:35:20;4.40;99.90
28677;DHT22;15858;48.338;11.078;2022-11-15T00:37:47;4.40;99.90
28677;DHT22;15858;48.338;11.078;2022-11-15T00:40:14;4.40;99.90
28677;DHT22;15858;48.338;11.078;2022-11-15T00:42:41;4.40;99.90
28677;DHT22;15858;48.338;11.078;2022-11-15T00:45:09;4.40;99.90
28677;DHT22;15858;48.338;11.078;2022-11-15T00:47:35;4.40;99.90
28677;DHT22;15858;48.338;11.078;2022-11-15T00:50:02;4.40;99.90
28677;DHT22;15858;48.338;11.078;2022-11-15T00:52:29;4.30;99.90
28677;DHT22;15858;48.338;11.078;2022-11-15T00:54:55;4.20;99.90
28677;DHT22;15858;48.338;11.078;2022-11-15T00:57:22;4.10;99.90
28677;DHT22;15858;48.338;11.078;2022-11-15T00:59:49;4.20;99.90
28677;DHT22;15858;48.338;11.078;2022-11-15T01:02:15;4.20;99.90
28677;DHT22;15858;48.338;11.078;2022-11-15T01:04:42;4.20;99.90
28677;DHT22;15858;48.338;11.078;2022-11-15T01:07:08;4.10;99.90
28677;DHT22;15858;48.338;11.078;2022-11-15T01:09:35;4.20;99.90
28677;DHT22;15858;48.338;11.078;2022-11-15T01:12:02;4.20;99.90
28677;DHT22;15858;48.338;11.078;2022-11-15T01:14:28;4.20;99.90
28677;DHT22;15858;48.338;11.078;2022-11-15T01:16:55;4.10;99.90
28677;DHT22;15858;48.338;11.078;2022-11-15T01:19:22;4.00;99.90
28677;DHT22;15858;48.338;11.078;2022-11-15T01:21:49;4.00;99.90
28677;DHT22;15858;48.338;11.078;2022-11-15T01:24:16;3.90;99.90
28677;DHT22;15858;48.338;11.078;2022-11-15T01:26:42;3.90;99.90
28677;DHT22;15858;48.338;11.078;2022-11-15T01:29:09;3.90;99.90
28677;DHT22;15858;48.338;11.078;2022-11-15T01:31:36;4.00;99.90
28677;DHT22;15858;48.338;11.078;2022-11-15T01:34:02;4.00;99.90
28677;DHT22;15858;48.338;11.078;2022-11-15T01:36:29;3.90;99.90
28677;DHT22;15858;48.338;11.078;2022-11-15T01:38:57;4.00;99.90
28677;DHT22;15858;48.338;11.078;2022-11-15T01:41:27;4.00;99.90
28677;DHT22;15858;48.338;11.078;2022-11-15T01:46:47;4.00;99.90
28677;DHT22;15858;48.338;11.078;2022-11-15T01:49:18;3.90;99.90
28677;DHT22;15858;48.338;11.078;2022-11-15T01:51:45;3.80;99.90
28677;DHT22;15858;48.338;11.078;2022-11-15T01:54:16;3.80;99.90
28677;DHT22;15858;48.338;11.078;2022-11-15T01:56:52;3.80;99.90
28677;DHT22;15858;48.338;11.078;2022-11-15T01:59:19;3.80;99.90
28677;DHT22;15858;48.338;11.078;2022-11-15T02:01:47;3.80;99.90
28677;DHT22;15858;48.338;11.078;2022-11-15T02:04:22;3.80;99.90
28677;DHT22;15858;48.338;11.078;2022-11-15T02:06:51;3.80;99.90
28677;DHT22;15858;48.338;11.078;2022-11-15T02:09:18;3.80;99.90
28677;DHT22;15858;48.338;11.078;2022-11-15T02:11:45;3.80;99.90
28677;DHT22;15858;48.338;11.078;2022-11-15T02:14:15;3.80;99.90
28677;DHT22;15858;48.338;11.078;2022-11-15T02:17:18;3.80;99.90
28677;DHT22;15858;48.338;11.078;2022-11-15T02:33:37;3.70;99.90
28677;DHT22;15858;48.338;11.078;2022-11-15T02:39:05;3.80;99.90
28677;DHT22;15858;48.338;11.078;2022-11-15T02:41:49;3.70;99.90
28677;DHT22;15858;48.338;11.078;2022-11-15T02:44:29;3.60;99.90
28677;DHT22;15858;48.338;11.078;2022-11-15T02:47:01;3.50;99.90
28677;DHT22;15858;48.338;11.078;2022-11-15T02:49:33;3.50;99.90
28677;DHT22;15858;48.338;11.078;2022-11-15T02:52:00;3.50;99.90
28677;DHT22;15858;48.338;11.078;2022-11-15T02:54:30;3.50;99.90
28677;DHT22;15858;48.338;11.078;2022-11-15T02:57:07;3.50;99.90
28677;DHT22;15858;48.338;11.078;2022-11-15T03:00:08;3.50;99.90
28677;DHT22;15858;48.338;11.078;2022-11-15T03:03:08;3.50;99.90
28677;DHT22;15858;48.338;11.078;2022-11-15T03:06:00;3.40;99.90
28677;DHT22;15858;48.338;11.078;2022-11-15T03:08:40;3.50;99.90
28677;DHT22;15858;48.338;11.078;2022-11-15T03:11:12;3.50;99.90
28677;DHT22;15858;48.338;11.078;2022-11-15T03:17:07;3.50;99.90
28677;DHT22;15858;48.338;11.078;2022-11-15T03:19:50;3.50;99.90
28677;DHT22;15858;48.338;11.078;2022-11-15T03:22:22;3.50;99.90
28677;DHT22;15858;48.338;11.078;2022-11-15T03:24:56;3.40;99.90
28677;DHT22;15858;48.338;11.078;2022-11-15T03:27:27;3.30;99.90
28677;DHT22;15858;48.338;11.078;2022-11-15T03:29:59;3.30;99.90
28677;DHT22;15858;48.338;11.078;2022-11-15T03:32:31;3.30;99.90
28677;DHT22;15858;48.338;11.078;2022-11-15T03:35:04;3.20;99.90
28677;DHT22;15858;48.338;11.078;2022-11-15T03:37:37;3.20;99.90
28677;DHT22;15858;48.338;11.078;2022-11-15T03:40:05;3.20;99.90
28677;DHT22;15858;48.338;11.078;2022-11-15T03:42:46;3.30;99.90
28677;DHT22;15858;48.338;11.078;2022-11-15T03:45:19;3.20;99.90
28677;DHT22;15858;48.338;11.078;2022-11-15T03:47:53;3.20;99.90
28677;DHT22;15858;48.338;11.078;2022-11-15T03:50:22;3.20;99.90
28677;DHT22;15858;48.338;11.078;2022-11-15T03:52:49;3.30;99.90
28677;DHT22;15858;48.338;11.078;2022-11-15T03:55:19;3.20;99.90
28677;DHT22;15858;48.338;11.078;2022-11-15T03:57:48;3.20;99.90
28677;DHT22;15858;48.338;11.078;2022-11-15T04:00:15;3.20;99.90
28677;DHT22;15858;48.338;11.078;2022-11-15T04:02:42;3.20;99.90
28677;DHT22;15858;48.338;11.078;2022-11-15T04:05:09;3.20;99.90
28677;DHT22;15858;48.338;11.078;2022-11-15T04:07:36;3.10;99.90
28677;DHT22;15858;48.338;11.078;2022-11-15T04:10:03;3.20;99.90
28677;DHT22;15858;48.338;11.078;2022-11-15T04:12:31;3.20;99.90
28677;DHT22;15858;48.338;11.078;2022-11-15T04:15:02;3.20;99.90
28677;DHT22;15858;48.338;11.078;2022-11-15T04:17:29;3.20;99.90
28677;DHT22;15858;48.338;11.078;2022-11-15T04:19:56;3.10;99.90
28677;DHT22;15858;48.338;11.078;2022-11-15T04:22:22;3.10;99.90
28677;DHT22;15858;48.338;11.078;2022-11-15T04:24:49;3.10;99.90
28677;DHT22;15858;48.338;11.078;2022-11-15T04:27:15;3.10;99.90
28677;DHT22;15858;48.338;11.078;2022-11-15T04:29:42;3.10;99.90
28677;DHT22;15858;48.338;11.078;2022-11-15T04:32:09;3.10;99.90
28677;DHT22;15858;48.338;11.078;2022-11-15T04:34:35;3.10;99.90
28677;DHT22;15858;48.338;11.078;2022-11-15T04:37:02;3.00;99.90
28677;DHT22;15858;48.338;11.078;2022-11-15T04:39:28;3.00;99.90
28677;DHT22;15858;48.338;11.078;2022-11-15T04:41:55;3.00;99.90
28677;DHT22;15858;48.338;11.078;2022-11-15T04:44:21;3.00;99.90
28677;DHT22;15858;48.338;11.078;2022-11-15T04:46:48;3.10;99.90
28677;DHT22;15858;48.338;11.078;2022-11-15T04:49:14;3.00;99.90
28677;DHT22;15858;48.338;11.078;2022-11-15T04:51:41;3.00;99.90
28677;DHT22;15858;48.338;11.078;2022-11-15T04:54:08;3.00;99.90
28677;DHT22;15858;48.338;11.078;2022-11-15T04:56:34;3.00;99.90
28677;DHT22;15858;48.338;11.078;2022-11-15T04:59:01;3.00;99.90
28677;DHT22;15858;48.338;11.078;2022-11-15T05:01:27;3.00;99.90
28677;DHT22;15858;48.338;11.078;2022-11-15T05:03:54;3.00;99.90
28677;DHT22;15858;48.338;11.078;2022-11-15T05:06:21;3.00;99.90
28677;DHT22;15858;48.338;11.078;2022-11-15T05:08:47;3.00;99.90
28677;DHT22;15858;48.338;11.078;2022-11-15T05:11:14;3.00;99.90
28677;DHT22;15858;48.338;11.078;2022-11-15T05:13:40;2.90;99.90
28677;DHT22;15858;48.338;11.078;2022-11-15T05:16:07;2.80;99.90
28677;DHT22;15858;48.338;11.078;2022-11-15T05:18:34;2.80;99.90
28677;DHT22;15858;48.338;11.078;2022-11-15T05:21:05;2.80;99.90
28677;DHT22;15858;48.338;11.078;2022-11-15T05:23:32;2.70;99.90
28677;DHT22;15858;48.338;11.078;2022-11-15T05:26:00;2.70;99.90
28677;DHT22;15858;48.338;11.078;2022-11-15T05:28:33;2.70;99.90
28677;DHT22;15858;48.338;11.078;2022-11-15T05:31:13;2.70;99.90
28677;DHT22;15858;48.338;11.078;2022-11-15T05:33:41;2.70;99.90
28677;DHT22;15858;48.338;11.078;2022-11-15T05:36:38;2.70;99.90
28677;DHT22;15858;48.338;11.078;2022-11-15T05:39:07;2.70;99.90
28677;DHT22;15858;48.338;11.078;2022-11-15T05:41:47;2.60;99.90
28677;DHT22;15858;48.338;11.078;2022-11-15T05:44:17;2.60;99.90
28677;DHT22;15858;48.338;11.078;2022-11-15T05:46:46;2.60;99.90
28677;DHT22;15858;48.338;11.078;2022-11-15T05:49:17;2.60;99.90
28677;DHT22;15858;48.338;11.078;2022-11-15T05:51:46;2.60;99.90
28677;DHT22;15858;48.338;11.078;2022-11-15T05:54:14;2.60;99.90
28677;DHT22;15858;48.338;11.078;2022-11-15T05:56:41;2.50;99.90
28677;DHT22;15858;48.338;11.078;2022-11-15T05:59:09;2.50;99.90
28677;DHT22;15858;48.338;11.078;2022-11-15T06:01:35;2.50;99.90
28677;DHT22;15858;48.338;11.078;2022-11-15T06:04:02;2.50;99.90
28677;DHT22;15858;48.338;11.078;2022-11-15T06:06:29;2.50;99.90
28677;DHT22;15858;48.338;11.078;2022-11-15T06:08:56;2.50;99.90
28677;DHT22;15858;48.338;11.078;2022-11-15T06:11:22;2.50;99.90
28677;DHT22;15858;48.338;11.078;2022-11-15T06:13:49;2.40;99.90
28677;DHT22;15858;48.338;11.078;2022-11-15T06:16:15;2.50;99.90
28677;DHT22;15858;48.338;11.078;2022-11-15T06:18:42;2.40;99.90
28677;DHT22;15858;48.338;11.078;2022-11-15T06:21:09;2.40;99.90
28677;DHT22;15858;48.338;11.078;2022-11-15T06:23:36;2.40;99.90
28677;DHT22;15858;48.338;11.078;2022-11-15T06:26:03;2.40;99.90
28677;DHT22;15858;48.338;11.078;2022-11-15T06:28:33;2.40;99.90
28677;DHT22;15858;48.338;11.078;2022-11-15T06:31:07;2.40;99.90
28677;DHT22;15858;48.338;11.078;2022-11-15T06:33:34;2.30;99.90
28677;DHT22;15858;48.338;11.078;2022-11-15T06:36:06;2.40;99.90
28677;DHT22;15858;48.338;11.078;2022-11-15T06:38:38;2.40;99.90
28677;DHT22;15858;48.338;11.078;2022-11-15T06:41:07;2.40;99.90
28677;DHT22;15858;48.338;11.078;2022-11-15T06:43:35;2.40;99.90
28677;DHT22;15858;48.338;11.078;2022-11-15T06:46:03;2.30;99.90
28677;DHT22;15858;48.338;11.078;2022-11-15T06:48:31;2.30;99.90
28677;DHT22;15858;48.338;11.078;2022-11-15T06:50:59;2.30;99.90
28677;DHT22;15858;48.338;11.078;2022-11-15T06:53:27;2.30;99.90
28677;DHT22;15858;48.338;11.078;2022-11-15T06:55:58;2.30;99.90
28677;DHT22;15858;48.338;11.078;2022-11-15T06:58:25;2.40;99.90
28677;DHT22;15858;48.338;11.078;2022-11-15T07:00:52;2.50;99.90
28677;DHT22;15858;48.338;11.078;2022-11-15T07:03:19;3.10;99.90
28677;DHT22;15858;48.338;11.078;2022-11-15T07:05:53;4.20;99.90
28677;DHT22;15858;48.338;11.078;2022-11-15T07:08:19;5.10;99.90
28677;DHT22;15858;48.338;11.078;2022-11-15T07:10:46;6.10;99.90
28677;DHT22;15858;48.338;11.078;2022-11-15T07:13:13;6.70;99.90
28677;DHT22;15858;48.338;11.078;2022-11-15T07:15:39;6.70;99.90
28677;DHT22;15858;48.338;11.078;2022-11-15T07:18:06;6.30;99.90
28677;DHT22;15858;48.338;11.078;2022-11-15T07:20:32;5.70;99.90
28677;DHT22;15858;48.338;11.078;2022-11-15T07:23:00;5.30;99.90
28677;DHT22;15858;48.338;11.078;2022-11-15T07:25:27;4.90;99.90
28677;DHT22;15858;48.338;11.078;2022-11-15T07:27:58;4.80;99.90
28677;DHT22;15858;48.338;11.078;2022-11-15T07:30:26;4.60;99.90
28677;DHT22;15858;48.338;11.078;2022-11-15T07:33:00;4.40;99.90
28677;DHT22;15858;48.338;11.078;2022-11-15T07:35:28;4.20;99.90
28677;DHT22;15858;48.338;11.078;2022-11-15T07:38:00;4.10;99.90
28677;DHT22;15858;48.338;11.078;2022-11-15T07:40:28;4.00;99.90
28677;DHT22;15858;48.338;11.078;2022-11-15T07:43:03;3.90;99.90
28677;DHT22;15858;48.338;11.078;2022-11-15T07:45:30;3.90;99.90
28677;DHT22;15858;48.338;11.078;2022-11-15T07:47:56;3.80;99.90
28677;DHT22;15858;48.338;11.078;2022-11-15T07:50:24;3.80;99.90
28677;DHT22;15858;48.338;11.078;2022-11-15T07:52:55;3.70;99.90
28677;DHT22;15858;48.338;11.078;2022-11-15T07:55:24;3.80;99.90
28677;DHT22;15858;48.338;11.078;2022-11-15T07:57:50;3.80;99.90
28677;DHT22;15858;48.338;11.078;2022-11-15T08:00:17;3.90;99.90
28677;DHT22;15858;48.338;11.078;2022-11-15T08:02:45;3.90;99.90
28677;DHT22;15858;48.338;11.078;2022-11-15T08:05:12;4.00;99.90
28677;DHT22;15858;48.338;11.078;2022-11-15T08:07:38;4.20;99.90
28677;DHT22;15858;48.338;11.078;2022-11-15T08:10:05;4.30;99.90
28677;DHT22;15858;48.338;11.078;2022-11-15T08:12:32;4.40;99.90
28677;DHT22;15858;48.338;11.078;2022-11-15T08:14:59;4.50;99.90
28677;DHT22;15858;48.338;11.078;2022-11-15T08:17:26;4.60;99.90
28677;DHT22;15858;48.338;11.078;2022-11-15T08:19:52;4.60;99.90
28677;DHT22;15858;48.338;11.078;2022-11-15T08:22:19;4.70;99.90
28677;DHT22;15858;48.338;11.078;2022-11-15T08:24:46;4.70;99.90
28677;DHT22;15858;48.338;11.078;2022-11-15T08:27:12;4.80;99.90
28677;DHT22;15858;48.338;11.078;2022-11-15T08:29:41;4.90;99.90
28677;DHT22;15858;48.338;11.078;2022-11-15T08:32:08;5.00;99.90
28677;DHT22;15858;48.338;11.078;2022-11-15T08:34:34;5.10;99.90
28677;DHT22;15858;48.338;11.078;2022-11-15T08:37:01;5.20;99.90
28677;DHT22;15858;48.338;11.078;2022-11-15T08:39:28;5.30;99.90
28677;DHT22;15858;48.338;11.078;2022-11-15T08:41:54;5.30;99.90
28677;DHT22;15858;48.338;11.078;2022-11-15T08:44:21;5.40;99.90
28677;DHT22;15858;48.338;11.078;2022-11-15T08:46:48;5.50;99.90
28677;DHT22;15858;48.338;11.078;2022-11-15T08:49:14;5.60;99.90
28677;DHT22;15858;48.338;11.078;2022-11-15T08:51:41;5.60;99.90
28677;DHT22;15858;48.338;11.078;2022-11-15T08:54:07;5.70;99.90
28677;DHT22;15858;48.338;11.078;2022-11-15T08:56:34;5.70;99.90
28677;DHT22;15858;48.338;11.078;2022-11-15T08:59:00;5.80;99.90
28677;DHT22;15858;48.338;11.078;2022-11-15T09:01:27;5.80;99.90
28677;DHT22;15858;48.338;11.078;2022-11-15T09:03:54;5.90;99.90
28677;DHT22;15858;48.338;11.078;2022-11-15T09:06:20;6.10;99.90
28677;DHT22;15858;48.338;11.078;2022-11-15T09:08:47;6.20;99.90
28677;DHT22;15858;48.338;11.078;2022-11-15T09:11:14;6.30;99.90
28677;DHT22;15858;48.338;11.078;2022-11-15T09:13:41;6.50;99.90
28677;DHT22;15858;48.338;11.078;2022-11-15T09:16:07;6.60;99.90
28677;DHT22;15858;48.338;11.078;2022-11-15T09:18:34;6.70;99.90
28677;DHT22;15858;48.338;11.078;2022-11-15T09:21:01;6.70;99.90
28677;DHT22;15858;48.338;11.078;2022-11-15T09:23:27;6.70;99.90
28677;DHT22;15858;48.338;11.078;2022-11-15T09:26:02;6.70;99.90
28677;DHT22;15858;48.338;11.078;2022-11-15T09:28:30;6.70;99.90
28677;DHT22;15858;48.338;11.078;2022-11-15T09:30:58;6.70;99.90
28677;DHT22;15858;48.338;11.078;2022-11-15T09:33:26;6.80;99.90
28677;DHT22;15858;48.338;11.078;2022-11-15T09:35:52;6.80;99.90
28677;DHT22;15858;48.338;11.078;2022-11-15T09:38:19;6.90;99.90
28677;DHT22;15858;48.338;11.078;2022-11-15T09:40:52;6.90;99.90
28677;DHT22;15858;48.338;11.078;2022-11-15T09:48:53;7.20;99.90
28677;DHT22;15858;48.338;11.078;2022-11-15T09:51:33;7.30;99.90
28677;DHT22;15858;48.338;11.078;2022-11-15T09:54:15;7.40;99.90
28677;DHT22;15858;48.338;11.078;2022-11-15T10:03:08;7.80;99.90
28677;DHT22;15858;48.338;11.078;2022-11-15T10:05:47;7.90;99.90
28677;DHT22;15858;48.338;11.078;2022-11-15T10:11:32;7.90;99.90
28677;DHT22;15858;48.338;11.078;2022-11-15T10:14:18;8.00;99.90
28677;DHT22;15858;48.338;11.078;2022-11-15T10:16:51;8.00;99.90
28677;DHT22;15858;48.338;11.078;2022-11-15T10:24:45;8.30;99.90
28677;DHT22;15858;48.338;11.078;2022-11-15T10:27:15;8.50;99.90
28677;DHT22;15858;48.338;11.078;2022-11-15T10:29:49;8.60;99.90
28677;DHT22;15858;48.338;11.078;2022-11-15T10:32:18;8.60;99.90
28677;DHT22;15858;48.338;11.078;2022-11-15T10:34:46;8.70;99.90
28677;DHT22;15858;48.338;11.078;2022-11-15T10:37:13;8.80;99.90
28677;DHT22;15858;48.338;11.078;2022-11-15T10:39:40;9.00;99.90
28677;DHT22;15858;48.338;11.078;2022-11-15T10:42:25;9.10;99.90
28677;DHT22;15858;48.338;11.078;2022-11-15T10:44:52;9.20;99.90
28677;DHT22;15858;48.338;11.078;2022-11-15T10:47:25;9.30;99.90
28677;DHT22;15858;48.338;11.078;2022-11-15T10:49:58;9.50;99.90
28677;DHT22;15858;48.338;11.078;2022-11-15T10:52:26;9.60;99.90
28677;DHT22;15858;48.338;11.078;2022-11-15T10:58:29;9.90;99.90
28677;DHT22;15858;48.338;11.078;2022-11-15T11:00:46;10.10;99.90
28677;DHT22;15858;48.338;11.078;2022-11-15T11:03:34;10.30;99.90
28677;DHT22;15858;48.338;11.078;2022-11-15T11:06:10;10.60;99.90
28677;DHT22;15858;48.338;11.078;2022-11-15T11:08:38;10.90;99.90
28677;DHT22;15858;48.338;11.078;2022-11-15T11:11:05;11.30;99.90
28677;DHT22;15858;48.338;11.078;2022-11-15T11:19:02;12.10;99.90
28677;DHT22;15858;48.338;11.078;2022-11-15T11:24:21;12.40;99.90
28677;DHT22;15858;48.338;11.078;2022-11-15T11:27:24;12.50;99.90
28677;DHT22;15858;48.338;11.078;2022-11-15T11:30:02;12.70;99.90
28677;DHT22;15858;48.338;11.078;2022-11-15T11:35:08;13.10;99.90
28677;DHT22;15858;48.338;11.078;2022-11-15T11:37:47;13.20;99.90
28677;DHT22;15858;48.338;11.078;2022-11-15T11:48:38;13.70;99.90
28677;DHT22;15858;48.338;11.078;2022-11-15T11:54:09;14.00;99.90
28677;DHT22;15858;48.338;11.078;2022-11-15T11:56:41;14.10;99.90
28677;DHT22;15858;48.338;11.078;2022-11-15T11:59:28;14.20;99.90
28677;DHT22;15858;48.338;11.078;2022-11-15T12:02:07;14.30;99.90
28677;DHT22;15858;48.338;11.078;2022-11-15T12:04:41;14.50;99.90
28677;DHT22;15858;48.338;11.078;2022-11-15T12:07:21;14.50;99.90
28677;DHT22;15858;48.338;11.078;2022-11-15T12:10:33;14.60;99.90
28677;DHT22;15858;48.338;11.078;2022-11-15T12:15:25;14.70;99.90
28677;DHT22;15858;48.338;11.078;2022-11-15T12:17:55;14.80;99.90
28677;DHT22;15858;48.338;11.078;2022-11-15T12:20:25;14.80;99.90
28677;DHT22;15858;48.338;11.078;2022-11-15T12:23:10;15.00;99.90
28677;DHT22;15858;48.338;11.078;2022-11-15T12:25:50;15.00;99.90
28677;DHT22;15858;48.338;11.078;2022-11-15T12:31:18;15.00;99.90
28677;DHT22;15858;48.338;11.078;2022-11-15T12:33:48;14.80;99.90
28677;DHT22;15858;48.338;11.078;2022-11-15T12:38:49;14.80;99.90
28677;DHT22;15858;48.338;11.078;2022-11-15T12:41:18;14.70;99.90
28677;DHT22;15858;48.338;11.078;2022-11-15T12:43:46;14.70;99.90
28677;DHT22;15858;48.338;11.078;2022-11-15T12:59:58;14.00;99.90
28677;DHT22;15858;48.338;11.078;2022-11-15T13:02:33;14.10;99.90
28677;DHT22;15858;48.338;11.078;2022-11-15T13:17:45;13.20;99.90
28677;DHT22;15858;48.338;11.078;2022-11-15T13:22:43;12.90;99.90
28677;DHT22;15858;48.338;11.078;2022-11-15T13:27:47;12.90;99.90
28677;DHT22;15858;48.338;11.078;2022-11-15T13:30:27;12.80;99.90
28677;DHT22;15858;48.338;11.078;2022-11-15T13:32:54;12.70;99.90
28677;DHT22;15858;48.338;11.078;2022-11-15T13:35:28;12.60;99.90
28677;DHT22;15858;48.338;11.078;2022-11-15T13:37:56;12.60;99.90
28677;DHT22;15858;48.338;11.078;2022-11-15T13:40:29;12.60;99.90
28677;DHT22;15858;48.338;11.078;2022-11-15T13:42:57;12.40;99.90
28677;DHT22;15858;48.338;11.078;2022-11-15T13:45:24;12.40;99.90
28677;DHT22;15858;48.338;11.078;2022-11-15T13:47:56;12.40;99.90
28677;DHT22;15858;48.338;11.078;2022-11-15T13:50:29;12.40;99.90
28677;DHT22;15858;48.338;11.078;2022-11-15T13:52:59;12.50;99.90
28677;DHT22;15858;48.338;11.078;2022-11-15T13:55:33;12.60;99.90
28677;DHT22;15858;48.338;11.078;2022-11-15T13:58:02;12.60;99.90
28677;DHT22;15858;48.338;11.078;2022-11-15T14:00:37;12.60;99.90
28677;DHT22;15858;48.338;11.078;2022-11-15T14:03:05;12.50;99.90
28677;DHT22;15858;48.338;11.078;2022-11-15T14:05:33;12.40;99.90
28677;DHT22;15858;48.338;11.078;2022-11-15T14:08:12;12.40;99.90
28677;DHT22;15858;48.338;11.078;2022-11-15T14:10:47;12.40;99.90
28677;DHT22;15858;48.338;11.078;2022-11-15T14:13:30;12.40;99.90
28677;DHT22;15858;48.338;11.078;2022-11-15T14:16:16;12.30;99.90
28677;DHT22;15858;48.338;11.078;2022-11-15T14:18:49;12.30;99.90
28677;DHT22;15858;48.338;11.078;2022-11-15T14:21:17;12.20;99.90
28677;DHT22;15858;48.338;11.078;2022-11-15T14:23:44;12.00;99.90
28677;DHT22;15858;48.338;11.078;2022-11-15T14:26:31;11.90;99.90
28677;DHT22;15858;48.338;11.078;2022-11-15T14:29:21;11.70;99.90
28677;DHT22;15858;48.338;11.078;2022-11-15T14:31:47;11.50;99.90
28677;DHT22;15858;48.338;11.078;2022-11-15T14:34:14;11.40;99.90
28677;DHT22;15858;48.338;11.078;2022-11-15T14:36:41;11.40;99.90
28677;DHT22;15858;48.338;11.078;2022-11-15T14:39:07;11.40;99.90
28677;DHT22;15858;48.338;11.078;2022-11-15T14:41:36;11.40;99.90
28677;DHT22;15858;48.338;11.078;2022-11-15T14:44:03;11.20;99.90
28677;DHT22;15858;48.338;11.078;2022-11-15T14:46:30;11.10;99.90
28677;DHT22;15858;48.338;11.078;2022-11-15T14:48:57;11.00;99.90
28677;DHT22;15858;48.338;11.078;2022-11-15T14:51:23;10.90;99.90
28677;DHT22;15858;48.338;11.078;2022-11-15T14:53:50;10.70;99.90
28677;DHT22;15858;48.338;11.078;2022-11-15T14:56:17;10.70;99.90
28677;DHT22;15858;48.338;11.078;2022-11-15T14:58:43;10.60;99.90
28677;DHT22;15858;48.338;11.078;2022-11-15T15:01:17;10.60;99.90
28677;DHT22;15858;48.338;11.078;2022-11-15T15:03:45;10.50;99.90
28677;DHT22;15858;48.338;11.078;2022-11-15T15:06:11;10.40;99.90
28677;DHT22;15858;48.338;11.078;2022-11-15T15:08:44;10.30;99.90
28677;DHT22;15858;48.338;11.078;2022-11-15T15:11:19;10.20;99.90
28677;DHT22;15858;48.338;11.078;2022-11-15T15:13:47;10.20;99.90
28677;DHT22;15858;48.338;11.078;2022-11-15T15:16:13;10.10;99.90
28677;DHT22;15858;48.338;11.078;2022-11-15T15:18:40;10.10;99.90
28677;DHT22;15858;48.338;11.078;2022-11-15T15:21:21;10.00;99.90
28677;DHT22;15858;48.338;11.078;2022-11-15T15:23:48;10.00;99.90
28677;DHT22;15858;48.338;11.078;2022-11-15T15:26:15;9.90;99.90
28677;DHT22;15858;48.338;11.078;2022-11-15T15:28:42;9.90;99.90
28677;DHT22;15858;48.338;11.078;2022-11-15T15:31:12;9.90;99.90
28677;DHT22;15858;48.338;11.078;2022-11-15T15:33:38;9.90;99.90
28677;DHT22;15858;48.338;11.078;2022-11-15T15:36:08;9.80;99.90
28677;DHT22;15858;48.338;11.078;2022-11-15T15:38:35;9.80;99.90
28677;DHT22;15858;48.338;11.078;2022-11-15T15:41:02;9.70;99.90
28677;DHT22;15858;48.338;11.078;2022-11-15T15:43:28;9.70;99.90
28677;DHT22;15858;48.338;11.078;2022-11-15T15:45:55;9.60;99.90
28677;DHT22;15858;48.338;11.078;2022-11-15T15:48:21;9.60;99.90
28677;DHT22;15858;48.338;11.078;2022-11-15T15:50:48;9.50;99.90
28677;DHT22;15858;48.338;11.078;2022-11-15T15:53:15;9.50;99.90
28677;DHT22;15858;48.338;11.078;2022-11-15T15:55:41;9.50;99.90
28677;DHT22;15858;48.338;11.078;2022-11-15T15:58:08;9.40;99.90
28677;DHT22;15858;48.338;11.078;2022-11-15T16:00:36;9.50;99.90
28677;DHT22;15858;48.338;11.078;2022-11-15T16:03:02;9.40;99.90
28677;DHT22;15858;48.338;11.078;2022-11-15T16:05:29;9.30;99.90
28677;DHT22;15858;48.338;11.078;2022-11-15T16:07:56;9.30;99.90
28677;DHT22;15858;48.338;11.078;2022-11-15T16:10:25;9.20;99.90
28677;DHT22;15858;48.338;11.078;2022-11-15T16:12:53;9.20;99.90
28677;DHT22;15858;48.338;11.078;2022-11-15T16:15:22;9.10;99.90
28677;DHT22;15858;48.338;11.078;2022-11-15T16:17:57;9.10;99.90
28677;DHT22;15858;48.338;11.078;2022-11-15T16:20:30;9.10;99.90
28677;DHT22;15858;48.338;11.078;2022-11-15T16:22:57;9.10;99.90
28677;DHT22;15858;48.338;11.078;2022-11-15T16:25:33;9.00;99.90
28677;DHT22;15858;48.338;11.078;2022-11-15T16:28:00;9.00;99.90
28677;DHT22;15858;48.338;11.078;2022-11-15T16:30:27;9.00;99.90
28677;DHT22;15858;48.338;11.078;2022-11-15T16:32:53;8.90;99.90
28677;DHT22;15858;48.338;11.078;2022-11-15T16:35:20;8.90;99.90
28677;DHT22;15858;48.338;11.078;2022-11-15T16:37:47;8.90;99.90
28677;DHT22;15858;48.338;11.078;2022-11-15T16:40:28;8.90;99.90
28677;DHT22;15858;48.338;11.078;2022-11-15T16:42:56;8.80;99.90
28677;DHT22;15858;48.338;11.078;2022-11-15T16:45:23;8.80;99.90
28677;DHT22;15858;48.338;11.078;2022-11-15T16:47:49;8.80;99.90
28677;DHT22;15858;48.338;11.078;2022-11-15T16:50:28;8.80;99.90
28677;DHT22;15858;48.338;11.078;2022-11-15T16:52:56;8.80;99.90
28677;DHT22;15858;48.338;11.078;2022-11-15T16:55:28;8.80;99.90
28677;DHT22;15858;48.338;11.078;2022-11-15T16:57:55;8.70;99.90
28677;DHT22;15858;48.338;11.078;2022-11-15T17:00:23;8.70;99.90
28677;DHT22;15858;48.338;11.078;2022-11-15T17:02:50;8.70;99.90
28677;DHT22;15858;48.338;11.078;2022-11-15T17:05:20;8.60;99.90
28677;DHT22;15858;48.338;11.078;2022-11-15T17:07:48;8.60;99.90
28677;DHT22;15858;48.338;11.078;2022-11-15T17:10:16;8.60;99.90
28677;DHT22;15858;48.338;11.078;2022-11-15T17:12:43;8.60;99.90
28677;DHT22;15858;48.338;11.078;2022-11-15T17:15:11;8.60;99.90
28677;DHT22;15858;48.338;11.078;2022-11-15T17:17:39;8.50;99.90
28677;DHT22;15858;48.338;11.078;2022-11-15T17:20:10;8.50;99.90
28677;DHT22;15858;48.338;11.078;2022-11-15T17:22:39;8.40;99.90
28677;DHT22;15858;48.338;11.078;2022-11-15T17:25:06;8.40;99.90
28677;DHT22;15858;48.338;11.078;2022-11-15T17:27:32;8.30;99.90
28677;DHT22;15858;48.338;11.078;2022-11-15T17:29:59;8.30;99.90
28677;DHT22;15858;48.338;11.078;2022-11-15T17:32:25;8.40;99.90